createdAt,value
2023-02-18T00:00:46.973Z,87.43
2023-02-18T00:01:55.233Z,85.57
2023-02-18T00:02:57.342Z,85.23
2023-02-18T00:04:00.628Z,83.23
2023-02-18T00:05:02.685Z,82.74
2023-02-18T00:06:16.586Z,82.38
2023-02-18T00:07:18.431Z,80.56
2023-02-18T00:08:21.543Z,81.18
2023-02-18T00:09:24.025Z,81.88
2023-02-18T00:10:26.031Z,82.90
2023-02-18T00:11:31.601Z,82.13
2023-02-18T00:12:33.858Z,81.39
2023-02-18T00:13:36.839Z,81.97
2023-02-18T00:14:39.071Z,82.17
2023-02-18T00:15:41.187Z,82.47
2023-02-18T00:16:44.933Z,79.56
2023-02-18T00:17:46.908Z,78.77
2023-02-18T00:18:49.263Z,78.85
2023-02-18T00:19:51.710Z,77.46
2023-02-18T00:20:53.597Z,77.15
2023-02-18T00:21:56.190Z,76.62
2023-02-18T00:22:58.440Z,76.51
2023-02-18T00:24:00.650Z,76.55
2023-02-18T00:25:02.732Z,76.76
2023-02-18T00:26:11.712Z,76.57
2023-02-18T00:27:15.222Z,76.37
2023-02-18T00:28:17.096Z,76.09
2023-02-18T00:29:20.942Z,77.03
2023-02-18T00:30:23.646Z,77.32
2023-02-18T00:31:33.116Z,76.57
2023-02-18T00:32:36.496Z,77.30
2023-02-18T00:33:39.119Z,77.82
2023-02-18T00:34:40.839Z,77.17
2023-02-18T00:35:42.970Z,77.51
2023-02-18T00:36:44.880Z,77.21
2023-02-18T00:37:47.039Z,77.56
2023-02-18T00:38:51.881Z,77.24
2023-02-18T00:39:56.687Z,78.06
2023-02-18T00:41:00.367Z,78.51
2023-02-18T00:42:02.301Z,77.44
2023-02-18T00:43:04.627Z,77.27
2023-02-18T00:44:07.023Z,77.14
2023-02-18T00:45:09.565Z,76.79
2023-02-18T00:46:12.395Z,76.98
2023-02-18T00:47:14.657Z,77.05
2023-02-18T00:48:16.721Z,77.22
2023-02-18T00:49:18.449Z,77.33
2023-02-18T00:50:20.187Z,77.33
2023-02-18T00:51:22.964Z,76.65
2023-02-18T00:52:25.086Z,77.10
2023-02-18T00:53:29.248Z,76.80
2023-02-18T00:54:31.764Z,77.07
2023-02-18T00:55:33.626Z,77.42
2023-02-18T00:56:35.725Z,77.42
2023-02-18T00:57:37.620Z,77.24
2023-02-18T00:58:39.969Z,77.34
2023-02-18T00:59:42.188Z,77.14
2023-02-18T01:00:44.485Z,76.43
2023-02-18T01:01:47.479Z,76.74
2023-02-18T01:02:53.974Z,76.92
2023-02-18T01:03:57.965Z,77.24
2023-02-18T01:05:00.124Z,77.17
2023-02-18T01:06:02.542Z,77.39
2023-02-18T01:07:04.426Z,77.19
2023-02-18T01:08:08.482Z,77.31
2023-02-18T01:09:10.714Z,77.65
2023-02-18T01:10:12.629Z,78.13
2023-02-18T01:11:15.526Z,78.33
2023-02-18T01:12:18.010Z,78.55
2023-02-18T01:13:20.844Z,78.90
2023-02-18T01:14:22.774Z,79.29
2023-02-18T01:15:25.132Z,79.42
2023-02-18T01:16:27.460Z,79.96
2023-02-18T01:17:29.402Z,80.41
2023-02-18T01:18:31.668Z,80.60
2023-02-18T01:19:33.521Z,80.87
2023-02-18T01:20:37.209Z,81.00
2023-02-18T01:21:39.699Z,81.21
2023-02-18T01:22:42.029Z,81.45
2023-02-18T01:23:43.804Z,81.36
2023-02-18T01:24:46.521Z,81.23
2023-02-18T01:25:48.723Z,81.10
2023-02-18T01:26:50.745Z,81.47
2023-02-18T01:27:52.541Z,80.92
2023-02-18T01:28:54.403Z,81.29
2023-02-18T01:29:56.885Z,81.33
2023-02-18T01:31:04.220Z,81.13
2023-02-18T01:32:07.030Z,81.61
2023-02-18T01:33:09.585Z,81.86
2023-02-18T01:34:13.537Z,82.05
2023-02-18T01:35:18.844Z,81.82
2023-02-18T01:36:20.614Z,81.74
2023-02-18T01:37:22.958Z,81.81
2023-02-18T01:38:26.554Z,81.85
2023-02-18T01:39:28.455Z,81.85
2023-02-18T01:40:30.713Z,81.99
2023-02-18T01:41:32.890Z,82.52
2023-02-18T01:42:35.159Z,82.11
2023-02-18T01:43:38.481Z,82.53
2023-02-18T01:44:41.034Z,82.48
2023-02-18T01:45:52.402Z,82.34
2023-02-18T01:46:54.646Z,82.32
2023-02-18T01:47:56.751Z,82.50
2023-02-18T01:49:01.992Z,82.17
2023-02-18T01:50:04.153Z,82.77
2023-02-18T01:51:13.718Z,83.11
2023-02-18T01:52:22.970Z,83.29
2023-02-18T01:53:48.202Z,82.25
2023-02-18T01:54:55.433Z,81.88
2023-02-18T01:56:02.849Z,81.81
2023-02-18T01:57:13.172Z,81.24
2023-02-18T01:58:16.853Z,81.42
2023-02-18T01:59:26.950Z,81.31
2023-02-18T02:00:28.964Z,80.78
2023-02-18T02:01:32.772Z,80.66
2023-02-18T02:02:39.286Z,79.95
2023-02-18T02:03:41.229Z,79.88
2023-02-18T02:04:44.273Z,78.72
2023-02-18T02:05:46.242Z,78.83
2023-02-18T02:06:51.076Z,78.96
2023-02-18T02:07:55.592Z,77.95
2023-02-18T02:09:02.914Z,78.29
2023-02-18T02:10:05.868Z,78.89
2023-02-18T02:11:24.486Z,79.12
2023-02-18T02:12:41.126Z,78.04
2023-02-18T02:14:10.364Z,78.68
2023-02-18T02:15:50.691Z,78.41
2023-02-18T02:17:18.161Z,78.10
2023-02-18T02:18:35.027Z,78.60
2023-02-18T02:20:04.998Z,78.98
2023-02-18T02:21:44.038Z,79.18
2023-02-18T02:22:54.756Z,79.55
2023-02-18T02:24:21.456Z,79.84
2023-02-18T02:25:56.361Z,80.30
2023-02-18T02:27:06.785Z,80.85
2023-02-18T02:28:21.139Z,80.96
2023-02-18T02:29:53.245Z,81.02
2023-02-18T02:30:58.038Z,81.14
2023-02-18T02:32:25.105Z,81.15
2023-02-18T02:33:53.002Z,81.47
2023-02-18T02:35:07.032Z,81.62
2023-02-18T02:36:31.230Z,82.17
2023-02-18T02:37:38.920Z,82.51
2023-02-18T02:38:58.000Z,82.68
2023-02-18T02:40:18.668Z,82.81
2023-02-18T02:41:26.385Z,83.27
2023-02-18T02:43:03.324Z,83.82
2023-02-18T02:44:21.738Z,83.92
2023-02-18T02:45:44.401Z,84.25
2023-02-18T02:46:51.178Z,84.44
2023-02-18T02:48:08.508Z,84.35
2023-02-18T02:49:29.083Z,84.20
2023-02-18T02:50:44.705Z,84.33
2023-02-18T02:52:16.698Z,84.70
2023-02-18T02:53:27.949Z,85.05
2023-02-18T02:54:30.727Z,85.35
2023-02-18T02:55:32.430Z,85.38
2023-02-18T02:56:36.247Z,85.47
2023-02-18T02:57:45.850Z,85.45
2023-02-18T02:59:02.726Z,85.54
2023-02-18T03:00:12.570Z,85.43
2023-02-18T03:01:43.061Z,85.53
2023-02-18T03:03:18.260Z,85.65
2023-02-18T03:04:58.436Z,85.74
2023-02-18T03:06:30.698Z,85.15
2023-02-18T03:07:41.870Z,85.14
2023-02-18T03:09:10.188Z,85.55
2023-02-18T03:10:25.801Z,85.65
2023-02-18T03:11:35.637Z,85.56
2023-02-18T03:13:06.949Z,85.48
2023-02-18T03:14:45.227Z,85.82
2023-02-18T03:16:06.096Z,85.67
2023-02-18T03:17:30.129Z,85.71
2023-02-18T03:18:41.519Z,85.80
2023-02-18T03:19:52.975Z,85.86
2023-02-18T03:21:03.136Z,85.91
2023-02-18T03:22:17.210Z,86.12
2023-02-18T03:23:27.248Z,86.42
2023-02-18T03:24:43.654Z,86.36
2023-02-18T03:25:51.115Z,86.42
2023-02-18T03:27:10.242Z,86.61
2023-02-18T03:28:19.271Z,86.88
2023-02-18T03:29:23.182Z,87.27
2023-02-18T03:31:00.807Z,87.49
2023-02-18T03:32:08.138Z,87.25
2023-02-18T03:33:16.328Z,87.31
2023-02-18T03:34:26.906Z,87.51
2023-02-18T03:35:29.545Z,87.63
2023-02-18T03:36:34.965Z,87.72
2023-02-18T03:37:48.065Z,87.88
2023-02-18T03:39:00.718Z,88.06
2023-02-18T03:40:03.974Z,88.26
2023-02-18T03:41:06.751Z,88.33
2023-02-18T03:42:09.854Z,88.49
2023-02-18T03:43:11.778Z,88.48
2023-02-18T03:44:13.917Z,88.47
2023-02-18T03:45:15.686Z,88.65
2023-02-18T03:46:18.405Z,88.87
2023-02-18T03:47:20.914Z,88.95
2023-02-18T03:48:23.352Z,88.98
2023-02-18T03:49:27.413Z,89.23
2023-02-18T03:50:29.856Z,89.60
2023-02-18T03:51:31.708Z,89.28
2023-02-18T03:52:33.540Z,89.43
2023-02-18T03:53:35.375Z,89.50
2023-02-18T03:54:37.273Z,89.68
2023-02-18T03:55:39.013Z,89.71
2023-02-18T03:56:41.198Z,89.72
2023-02-18T03:57:43.036Z,89.56
2023-02-18T03:58:44.990Z,89.30
2023-02-18T03:59:46.849Z,89.31
2023-02-18T04:00:48.668Z,89.36
2023-02-18T04:01:50.657Z,89.52
2023-02-18T04:02:52.917Z,89.60
2023-02-18T04:03:55.575Z,89.73
2023-02-18T04:04:57.317Z,90.08
2023-02-18T04:05:59.229Z,90.05
2023-02-18T04:07:01.073Z,90.33
2023-02-18T04:08:03.118Z,90.60
2023-02-18T04:09:08.951Z,90.64
2023-02-18T04:10:12.363Z,90.74
2023-02-18T04:11:14.515Z,91.02
2023-02-18T04:12:16.502Z,91.17
2023-02-18T04:13:18.582Z,91.30
2023-02-18T04:14:20.460Z,91.26
2023-02-18T04:15:22.230Z,91.43
2023-02-18T04:16:24.515Z,91.35
2023-02-18T04:17:26.337Z,91.34
2023-02-18T04:18:28.094Z,91.23
2023-02-18T04:19:30.183Z,91.20
2023-02-18T04:20:31.877Z,90.93
2023-02-18T04:21:34.485Z,90.56
2023-02-18T04:22:36.275Z,90.64
2023-02-18T04:23:37.982Z,90.66
2023-02-18T04:24:39.856Z,90.70
2023-02-18T04:25:41.764Z,90.55
2023-02-18T04:26:43.705Z,90.07
2023-02-18T04:27:45.441Z,90.01
2023-02-18T04:28:47.393Z,90.15
2023-02-18T04:29:49.508Z,90.27
2023-02-18T04:30:51.765Z,90.33
2023-02-18T04:31:53.980Z,90.03
2023-02-18T04:32:55.715Z,89.88
2023-02-18T04:33:57.620Z,89.85
2023-02-18T04:34:59.289Z,90.08
2023-02-18T04:36:01.018Z,90.31
2023-02-18T04:37:03.237Z,90.51
2023-02-18T04:38:05.065Z,90.52
2023-02-18T04:39:06.973Z,90.40
2023-02-18T04:40:09.849Z,90.19
2023-02-18T04:41:12.864Z,90.04
2023-02-18T04:42:14.829Z,90.29
2023-02-18T04:43:16.645Z,90.36
2023-02-18T04:44:18.413Z,90.46
2023-02-18T04:45:20.210Z,90.32
2023-02-18T04:46:21.941Z,90.32
2023-02-18T04:47:24.013Z,90.28
2023-02-18T04:48:25.834Z,90.45
2023-02-18T04:49:27.612Z,90.40
2023-02-18T04:50:29.505Z,90.46
2023-02-18T04:51:31.531Z,90.33
2023-02-18T04:52:33.640Z,90.45
2023-02-18T04:53:35.596Z,90.59
2023-02-18T04:54:37.388Z,90.60
2023-02-18T04:55:39.443Z,90.41
2023-02-18T04:56:41.415Z,90.38
2023-02-18T04:57:43.240Z,90.60
2023-02-18T04:58:45.193Z,90.55
2023-02-18T04:59:46.998Z,90.76
2023-02-18T05:00:49.191Z,90.78
2023-02-18T05:01:51.143Z,90.91
2023-02-18T05:02:52.913Z,90.93
2023-02-18T05:03:54.826Z,90.83
2023-02-18T05:04:56.684Z,90.92
2023-02-18T05:05:58.676Z,90.97
2023-02-18T05:07:00.701Z,90.82
2023-02-18T05:08:03.630Z,91.28
2023-02-18T05:09:06.692Z,91.39
2023-02-18T05:10:11.146Z,91.22
2023-02-18T05:11:13.030Z,91.06
2023-02-18T05:12:15.162Z,91.04
2023-02-18T05:13:17.099Z,90.84
2023-02-18T05:14:19.096Z,90.81
2023-02-18T05:15:21.266Z,91.10
2023-02-18T05:16:23.665Z,91.15
2023-02-18T05:17:25.513Z,91.06
2023-02-18T05:18:27.377Z,90.69
2023-02-18T05:19:29.164Z,90.37
2023-02-18T05:20:31.652Z,90.52
2023-02-18T05:21:34.204Z,90.94
2023-02-18T05:22:36.145Z,91.09
2023-02-18T05:23:38.239Z,91.24
2023-02-18T05:24:40.062Z,91.45
2023-02-18T05:25:41.875Z,91.63
2023-02-18T05:26:44.008Z,91.42
2023-02-18T05:27:46.027Z,91.24
2023-02-18T05:28:48.007Z,91.48
2023-02-18T05:29:49.700Z,91.69
2023-02-18T05:30:51.562Z,91.81
2023-02-18T05:31:53.418Z,91.68
2023-02-18T05:32:55.362Z,91.84
2023-02-18T05:33:57.104Z,91.90
2023-02-18T05:34:58.825Z,92.13
2023-02-18T05:36:00.903Z,91.93
2023-02-18T05:37:03.046Z,92.00
2023-02-18T05:38:04.825Z,92.10
2023-02-18T05:39:07.048Z,92.01
2023-02-18T05:40:09.155Z,92.22
2023-02-18T05:41:11.038Z,92.13
2023-02-18T05:42:13.180Z,91.99
2023-02-18T05:43:15.989Z,92.03
2023-02-18T05:44:33.916Z,92.07
2023-02-18T05:45:36.109Z,91.90
2023-02-18T05:46:37.824Z,91.95
2023-02-18T05:47:39.552Z,92.05
2023-02-18T05:48:41.263Z,92.02
2023-02-18T05:49:43.866Z,91.99
2023-02-18T05:50:45.702Z,91.99
2023-02-18T05:51:47.678Z,92.28
2023-02-18T05:52:49.628Z,91.98
2023-02-18T05:53:51.777Z,91.84
2023-02-18T05:54:53.980Z,92.09
2023-02-18T05:55:56.065Z,92.17
2023-02-18T05:56:58.051Z,92.07
2023-02-18T05:57:59.822Z,92.32
2023-02-18T05:59:01.488Z,92.47
2023-02-18T06:00:06.174Z,92.18
2023-02-18T06:01:08.259Z,92.02
2023-02-18T06:02:09.949Z,91.84
2023-02-18T06:03:11.776Z,92.15
2023-02-18T06:04:15.007Z,92.36
2023-02-18T06:05:16.753Z,92.29
2023-02-18T06:06:18.528Z,92.18
2023-02-18T06:07:20.688Z,92.34
2023-02-18T06:08:22.434Z,92.55
2023-02-18T06:09:24.378Z,92.72
2023-02-18T06:10:26.039Z,92.69
2023-02-18T06:11:27.918Z,92.97
2023-02-18T06:12:29.738Z,92.99
2023-02-18T06:13:31.854Z,93.13
2023-02-18T06:14:33.582Z,93.01
2023-02-18T06:15:35.248Z,93.27
2023-02-18T06:16:37.156Z,92.90
2023-02-18T06:17:38.955Z,92.53
2023-02-18T06:18:40.719Z,92.72
2023-02-18T06:19:42.453Z,92.81
2023-02-18T06:20:45.046Z,93.00
2023-02-18T06:21:46.939Z,92.87
2023-02-18T06:22:48.633Z,92.82
2023-02-18T06:23:50.857Z,93.03
2023-02-18T06:24:52.590Z,93.15
2023-02-18T06:25:54.532Z,93.08
2023-02-18T06:26:56.369Z,93.27
2023-02-18T06:27:58.132Z,92.94
2023-02-18T06:28:59.931Z,92.80
2023-02-18T06:30:01.683Z,92.87
2023-02-18T06:31:04.738Z,92.95
2023-02-18T06:32:06.883Z,93.08
2023-02-18T06:33:08.774Z,92.93
2023-02-18T06:34:10.545Z,93.10
2023-02-18T06:35:12.338Z,93.17
2023-02-18T06:36:14.514Z,93.25
2023-02-18T06:37:16.540Z,93.17
2023-02-18T06:38:18.390Z,93.27
2023-02-18T06:39:20.802Z,93.32
2023-02-18T06:40:22.609Z,92.87
2023-02-18T06:41:24.463Z,92.95
2023-02-18T06:42:26.289Z,93.02
2023-02-18T06:43:28.370Z,92.88
2023-02-18T06:44:30.119Z,92.95
2023-02-18T06:45:32.306Z,93.03
2023-02-18T06:46:34.797Z,92.96
2023-02-18T06:47:36.888Z,92.60
2023-02-18T06:48:39.018Z,92.72
2023-02-18T06:49:40.853Z,92.91
2023-02-18T06:50:43.907Z,92.85
2023-02-18T06:51:46.242Z,92.54
2023-02-18T06:52:48.085Z,92.49
2023-02-18T06:53:50.401Z,92.27
2023-02-18T06:54:52.386Z,92.16
2023-02-18T06:55:54.377Z,92.15
2023-02-18T06:56:56.252Z,91.94
2023-02-18T06:57:58.152Z,92.23
2023-02-18T06:59:00.209Z,92.18
2023-02-18T07:00:02.227Z,91.86
2023-02-18T07:01:04.897Z,91.78
2023-02-18T07:02:06.964Z,91.64
2023-02-18T07:03:08.938Z,91.15
2023-02-18T07:04:10.836Z,91.06
2023-02-18T07:05:12.618Z,90.88
2023-02-18T07:06:14.652Z,91.06
2023-02-18T07:07:16.651Z,90.49
2023-02-18T07:08:19.037Z,90.14
2023-02-18T07:09:21.004Z,90.18
2023-02-18T07:10:22.914Z,90.11
2023-02-18T07:11:24.755Z,90.06
2023-02-18T07:12:27.274Z,89.57
2023-02-18T07:13:29.531Z,89.81
2023-02-18T07:14:31.391Z,89.73
2023-02-18T07:15:33.720Z,89.82
2023-02-18T07:16:35.594Z,89.93
2023-02-18T07:17:38.019Z,89.89
2023-02-18T07:18:39.917Z,89.58
2023-02-18T07:19:41.761Z,89.44
2023-02-18T07:20:43.490Z,88.97
2023-02-18T07:21:45.222Z,88.80
2023-02-18T07:22:47.808Z,88.87
2023-02-18T07:23:49.535Z,88.77
2023-02-18T07:24:54.879Z,88.76
2023-02-18T07:26:23.700Z,88.69
2023-02-18T07:27:26.135Z,88.98
2023-02-18T07:28:28.621Z,88.96
2023-02-18T07:29:30.414Z,89.07
2023-02-18T07:30:32.602Z,88.64
2023-02-18T07:31:34.693Z,88.62
2023-02-18T07:32:37.053Z,88.83
2023-02-18T07:33:38.888Z,89.04
2023-02-18T07:34:40.935Z,88.90
2023-02-18T07:35:42.783Z,88.57
2023-02-18T07:36:44.622Z,88.50
2023-02-18T07:37:48.190Z,88.55
2023-02-18T07:38:50.026Z,88.46
2023-02-18T07:39:52.046Z,88.53
2023-02-18T07:40:55.414Z,88.65
2023-02-18T07:41:57.686Z,88.52
2023-02-18T07:42:59.656Z,87.90
2023-02-18T07:44:01.463Z,88.00
2023-02-18T07:45:03.860Z,87.94
2023-02-18T07:46:07.098Z,87.94
2023-02-18T07:47:14.744Z,87.96
2023-02-18T07:48:17.313Z,87.77
2023-02-18T07:49:19.204Z,87.47
2023-02-18T07:50:21.056Z,87.98
2023-02-18T07:51:23.224Z,88.07
2023-02-18T07:52:25.247Z,88.17
2023-02-18T07:53:27.220Z,88.03
2023-02-18T07:54:29.116Z,88.38
2023-02-18T07:56:24.510Z,87.85
2023-02-18T07:57:26.940Z,87.44
2023-02-18T07:58:31.781Z,87.13
2023-02-18T07:59:34.223Z,87.31
2023-02-18T08:00:37.657Z,87.09
2023-02-18T08:01:40.746Z,87.11
2023-02-18T08:02:42.635Z,87.25
2023-02-18T08:03:44.581Z,87.65
2023-02-18T08:04:48.050Z,87.47
2023-02-18T08:05:51.174Z,86.88
2023-02-18T08:06:52.988Z,86.56
2023-02-18T08:07:55.053Z,86.31
2023-02-18T08:08:57.161Z,86.55
2023-02-18T08:09:58.937Z,86.63
2023-02-18T08:11:13.425Z,87.17
2023-02-18T08:12:20.395Z,87.03
2023-02-18T08:13:23.246Z,86.80
2023-02-18T08:14:24.920Z,86.39
2023-02-18T08:15:26.658Z,86.88
2023-02-18T08:16:29.026Z,86.05
2023-02-18T08:17:31.104Z,85.57
2023-02-18T08:18:33.467Z,85.97
2023-02-18T08:19:35.548Z,86.39
2023-02-18T08:20:38.699Z,86.15
2023-02-18T08:21:40.775Z,85.80
2023-02-18T08:22:42.624Z,85.63
2023-02-18T08:23:44.955Z,85.89
2023-02-18T08:24:46.790Z,85.76
2023-02-18T08:25:50.909Z,85.98
2023-02-18T08:27:00.285Z,86.36
2023-02-18T08:28:03.602Z,86.27
2023-02-18T08:29:05.427Z,86.59
2023-02-18T08:30:08.161Z,86.28
2023-02-18T08:31:21.723Z,86.39
2023-02-18T08:32:27.953Z,85.55
2023-02-18T08:33:30.907Z,85.51
2023-02-18T08:34:32.906Z,85.91
2023-02-18T08:35:34.935Z,86.53
2023-02-18T08:36:37.132Z,86.42
2023-02-18T08:37:52.709Z,85.75
2023-02-18T08:38:57.640Z,84.45
2023-02-18T08:39:59.517Z,84.13
2023-02-18T08:41:06.165Z,83.92
2023-02-18T08:42:07.982Z,84.26
2023-02-18T08:43:10.743Z,83.68
2023-02-18T08:44:12.660Z,83.60
2023-02-18T08:45:14.838Z,83.16
2023-02-18T08:46:19.927Z,83.36
2023-02-18T08:48:16.817Z,83.57
2023-02-18T08:48:57.980Z,83.72
2023-02-18T08:49:59.913Z,83.57
2023-02-18T08:51:21.154Z,82.60
2023-02-18T08:52:23.672Z,82.24
2023-02-18T08:53:26.019Z,82.43
2023-02-18T08:54:27.782Z,82.57
2023-02-18T08:55:31.383Z,83.08
2023-02-18T08:56:33.621Z,83.23
2023-02-18T08:57:35.772Z,82.77
2023-02-18T08:58:38.202Z,82.40
2023-02-18T08:59:40.161Z,82.49
2023-02-18T09:00:43.684Z,82.93
2023-02-18T09:01:45.545Z,82.13
2023-02-18T09:02:48.003Z,82.00
2023-02-18T09:03:49.972Z,82.09
2023-02-18T09:04:51.699Z,81.54
2023-02-18T09:05:53.446Z,82.24
2023-02-18T09:06:55.172Z,82.45
2023-02-18T09:07:56.876Z,82.88
2023-02-18T09:08:58.574Z,83.06
2023-02-18T09:10:00.351Z,83.23
2023-02-18T09:11:04.803Z,83.72
2023-02-18T09:12:06.779Z,83.59
2023-02-18T09:13:08.535Z,83.29
2023-02-18T09:14:11.077Z,83.66
2023-02-18T09:15:12.769Z,83.67
2023-02-18T09:16:20.954Z,84.20
2023-02-18T09:17:22.861Z,84.08
2023-02-18T09:18:24.733Z,83.89
2023-02-18T09:19:26.832Z,83.57
2023-02-18T09:20:28.775Z,83.77
2023-02-18T09:21:30.997Z,83.89
2023-02-18T09:22:32.958Z,84.27
2023-02-18T09:23:36.324Z,84.79
2023-02-18T09:24:40.266Z,85.23
2023-02-18T09:25:42.047Z,84.75
2023-02-18T09:26:44.043Z,85.29
2023-02-18T09:27:45.858Z,84.86
2023-02-18T09:28:49.350Z,85.16
2023-02-18T09:29:51.533Z,85.56
2023-02-18T09:30:53.415Z,85.57
2023-02-18T09:31:55.381Z,85.77
2023-02-18T09:32:57.394Z,85.38
2023-02-18T09:34:01.838Z,85.39
2023-02-18T09:35:05.049Z,85.37
2023-02-18T09:36:07.832Z,85.41
2023-02-18T09:37:09.669Z,85.07
2023-02-18T09:38:15.030Z,84.91
2023-02-18T09:39:18.164Z,85.13
2023-02-18T09:40:29.641Z,85.23
2023-02-18T09:41:43.910Z,85.20
2023-02-18T09:42:46.122Z,84.79
2023-02-18T09:43:54.152Z,84.90
2023-02-18T09:45:04.428Z,85.00
2023-02-18T09:46:27.853Z,85.14
2023-02-18T09:47:40.133Z,84.69
2023-02-18T09:48:46.653Z,84.98
2023-02-18T09:49:57.621Z,84.92
2023-02-18T09:51:00.227Z,85.16
2023-02-18T09:52:38.402Z,84.85
2023-02-18T09:53:42.488Z,84.20
2023-02-18T09:54:44.472Z,84.77
2023-02-18T09:55:48.676Z,84.83
2023-02-18T09:56:53.473Z,85.01
2023-02-18T09:58:02.919Z,85.28
2023-02-18T09:59:13.437Z,85.45
2023-02-18T10:00:19.306Z,85.21
2023-02-18T10:01:28.392Z,85.02
2023-02-18T10:02:31.920Z,83.77
2023-02-18T10:03:33.768Z,83.39
2023-02-18T10:04:45.780Z,83.80
2023-02-18T10:06:10.769Z,84.03
2023-02-18T10:07:34.484Z,84.06
2023-02-18T10:08:46.550Z,83.09
2023-02-18T10:09:52.184Z,83.47
2023-02-18T10:10:54.605Z,83.53
2023-02-18T10:12:02.742Z,83.83
2023-02-18T10:13:25.488Z,83.82
2023-02-18T10:14:27.411Z,83.74
2023-02-18T10:15:32.096Z,83.91
2023-02-18T10:16:33.938Z,83.05
2023-02-18T10:17:38.555Z,83.03
2023-02-18T10:18:45.335Z,82.86
2023-02-18T10:19:49.885Z,82.73
2023-02-18T10:21:11.967Z,82.58
2023-02-18T10:22:16.801Z,81.90
2023-02-18T10:23:21.883Z,82.54
2023-02-18T10:24:32.383Z,82.31
2023-02-18T10:25:44.001Z,81.63
2023-02-18T10:26:45.979Z,81.54
2023-02-18T10:27:50.894Z,81.75
2023-02-18T10:28:53.069Z,82.20
2023-02-18T10:30:02.719Z,82.18
2023-02-18T10:31:13.216Z,81.95
2023-02-18T10:32:21.396Z,82.01
2023-02-18T10:33:36.533Z,81.79
2023-02-18T10:34:47.491Z,81.28
2023-02-18T10:35:57.826Z,81.34
2023-02-18T10:37:26.574Z,81.33
2023-02-18T10:39:04.915Z,81.03
2023-02-18T10:40:33.157Z,81.28
2023-02-18T10:41:43.373Z,81.05
2023-02-18T10:43:13.885Z,79.21
2023-02-18T10:44:28.739Z,78.68
2023-02-18T10:46:09.068Z,78.57
2023-02-18T10:48:00.831Z,78.70
2023-02-18T10:49:25.049Z,78.64
2023-02-18T10:50:44.202Z,79.00
2023-02-18T10:51:53.100Z,79.08
2023-02-18T10:53:02.180Z,79.37
2023-02-18T10:54:04.340Z,79.08
2023-02-18T10:55:10.760Z,77.69
2023-02-18T10:56:32.866Z,77.55
2023-02-18T10:57:45.434Z,78.03
2023-02-18T10:58:47.979Z,78.44
2023-02-18T11:00:15.349Z,78.30
2023-02-18T11:01:20.918Z,77.44
2023-02-18T11:02:29.717Z,77.07
2023-02-18T11:03:43.363Z,76.70
2023-02-18T11:04:46.687Z,76.24
2023-02-18T11:05:57.780Z,76.05
2023-02-18T11:07:05.960Z,76.15
2023-02-18T11:08:17.017Z,76.58
2023-02-18T11:09:26.728Z,76.61
2023-02-18T11:10:35.770Z,76.50
2023-02-18T11:11:39.822Z,75.91
2023-02-18T11:12:57.233Z,76.18
2023-02-18T11:14:02.344Z,76.59
2023-02-18T11:15:16.550Z,76.49
2023-02-18T11:16:23.805Z,76.31
2023-02-18T11:17:32.130Z,75.85
2023-02-18T11:18:48.203Z,75.92
2023-02-18T11:19:56.614Z,76.43
2023-02-18T11:21:02.325Z,76.37
2023-02-18T11:22:19.518Z,76.11
2023-02-18T11:23:21.958Z,76.11
2023-02-18T11:24:24.907Z,75.78
2023-02-18T11:25:34.001Z,75.53
2023-02-18T11:26:39.306Z,74.58
2023-02-18T11:27:59.122Z,74.02
2023-02-18T11:29:11.634Z,73.63
2023-02-18T11:30:43.811Z,73.48
2023-02-18T11:31:53.699Z,73.66
2023-02-18T11:33:18.793Z,72.61
2023-02-18T11:34:26.314Z,72.89
2023-02-18T11:35:32.562Z,72.57
2023-02-18T11:36:36.453Z,72.92
2023-02-18T11:37:39.275Z,72.66
2023-02-18T11:39:04.677Z,72.97
2023-02-18T11:40:07.348Z,72.77
2023-02-18T11:41:13.208Z,73.15
2023-02-18T11:42:19.543Z,73.20
2023-02-18T11:43:21.428Z,73.46
2023-02-18T11:44:36.244Z,73.02
2023-02-18T11:45:38.518Z,72.93
2023-02-18T11:47:06.968Z,72.26
2023-02-18T11:48:23.530Z,72.13
2023-02-18T11:49:26.242Z,71.55
2023-02-18T11:50:32.888Z,71.89
2023-02-18T11:51:39.119Z,72.39
2023-02-18T11:52:42.769Z,72.83
2023-02-18T11:53:59.810Z,72.98
2023-02-18T11:55:13.990Z,71.95
2023-02-18T11:56:20.489Z,71.75
2023-02-18T11:57:26.504Z,71.84
2023-02-18T11:58:40.074Z,72.46
2023-02-18T11:59:43.163Z,72.76
2023-02-18T12:00:48.511Z,72.88
2023-02-18T12:01:57.398Z,72.59
2023-02-18T12:03:05.595Z,72.52
2023-02-18T12:04:09.234Z,72.68
2023-02-18T12:05:23.422Z,72.54
2023-02-18T12:06:32.128Z,72.68
2023-02-18T12:07:48.868Z,72.80
2023-02-18T12:09:18.931Z,72.34
2023-02-18T12:10:30.810Z,72.44
2023-02-18T12:11:42.805Z,72.66
2023-02-18T12:12:56.393Z,72.52
2023-02-18T12:13:59.054Z,72.47
2023-02-18T12:15:01.781Z,72.68
2023-02-18T12:16:26.924Z,71.68
2023-02-18T12:17:54.057Z,71.47
2023-02-18T12:19:05.055Z,70.41
2023-02-18T12:20:47.870Z,70.16
2023-02-18T12:22:09.202Z,70.69
2023-02-18T12:23:21.715Z,69.09
2023-02-18T12:24:58.790Z,68.79
2023-02-18T12:26:16.581Z,67.63
2023-02-18T12:27:41.679Z,66.91
2023-02-18T12:28:55.506Z,66.73
2023-02-18T12:30:23.308Z,66.79
2023-02-18T12:31:29.098Z,66.85
2023-02-18T12:33:16.570Z,66.88
2023-02-18T12:34:44.583Z,66.99
2023-02-18T12:36:23.955Z,67.18
2023-02-18T12:37:41.956Z,67.26
2023-02-18T12:39:19.313Z,68.09
2023-02-18T12:40:54.359Z,68.36
2023-02-18T12:42:42.433Z,68.29
2023-02-18T12:44:14.105Z,68.31
2023-02-18T12:45:28.700Z,68.55
2023-02-18T12:46:49.733Z,68.44
2023-02-18T12:48:27.013Z,68.20
2023-02-18T12:49:34.879Z,68.12
2023-02-18T12:50:54.745Z,68.46
2023-02-18T12:52:26.492Z,68.90
2023-02-18T12:53:46.875Z,68.90
2023-02-18T12:55:09.904Z,68.46
2023-02-18T12:56:48.706Z,68.57
2023-02-18T12:58:09.783Z,68.72
2023-02-18T13:00:01.185Z,68.61
2023-02-18T13:01:34.285Z,68.83
2023-02-18T13:03:12.868Z,68.69
2023-02-18T13:04:50.941Z,67.90
2023-02-18T13:06:20.807Z,68.25
2023-02-18T13:07:32.890Z,68.15
2023-02-18T13:09:00.957Z,68.44
2023-02-18T13:10:32.994Z,68.71
2023-02-18T13:12:21.599Z,68.67
2023-02-18T13:13:37.004Z,69.27
2023-02-18T13:14:49.672Z,69.50
2023-02-18T13:16:11.841Z,69.36
2023-02-18T13:17:19.834Z,69.43
2023-02-18T13:18:34.551Z,69.26
2023-02-18T13:19:51.975Z,69.46
2023-02-18T13:21:12.546Z,69.50
2023-02-18T13:22:21.157Z,69.71
2023-02-18T13:23:26.412Z,69.65
2023-02-18T13:24:35.093Z,69.80
2023-02-18T13:25:39.671Z,69.65
2023-02-18T13:26:49.114Z,69.69
2023-02-18T13:28:29.756Z,70.02
2023-02-18T13:29:43.886Z,70.14
2023-02-18T13:31:05.692Z,70.35
2023-02-18T13:32:30.350Z,70.55
2023-02-18T13:33:56.957Z,70.38
2023-02-18T13:35:13.763Z,70.59
2023-02-18T13:36:24.898Z,70.64
2023-02-18T13:38:00.816Z,70.67
2023-02-18T13:39:11.516Z,70.83
2023-02-18T13:40:29.992Z,71.18
2023-02-18T13:41:37.101Z,71.29
2023-02-18T13:42:38.836Z,71.66
2023-02-18T13:43:40.732Z,72.37
2023-02-18T13:44:48.517Z,72.61
2023-02-18T13:46:19.237Z,73.34
2023-02-18T13:47:38.761Z,73.97
2023-02-18T13:48:44.709Z,74.31
2023-02-18T13:49:48.257Z,74.83
2023-02-18T13:51:04.364Z,75.01
2023-02-18T13:52:19.645Z,75.96
2023-02-18T13:53:25.516Z,76.89
2023-02-18T13:54:55.654Z,77.68
2023-02-18T13:56:05.456Z,79.19
2023-02-18T13:57:17.032Z,80.07
2023-02-18T13:58:24.639Z,80.75
2023-02-18T13:59:41.861Z,81.46
2023-02-18T14:00:52.472Z,82.07
2023-02-18T14:01:54.337Z,82.45
2023-02-18T14:03:00.196Z,83.51
2023-02-18T14:04:02.839Z,84.06
2023-02-18T14:05:08.431Z,84.34
2023-02-18T14:06:24.859Z,84.27
2023-02-18T14:07:35.922Z,85.24
2023-02-18T14:08:40.448Z,85.82
2023-02-18T14:09:44.027Z,86.57
2023-02-18T14:11:11.502Z,87.31
2023-02-18T14:12:41.593Z,88.65
2023-02-18T14:13:55.762Z,89.86
2023-02-18T14:14:58.828Z,91.12
2023-02-18T14:16:02.015Z,92.20
2023-02-18T14:17:19.608Z,93.26
2023-02-18T14:18:26.270Z,95.85
2023-02-18T14:19:29.545Z,95.15
2023-02-18T14:20:36.213Z,95.47
2023-02-18T14:21:44.210Z,96.05
2023-02-18T14:22:51.996Z,96.97
2023-02-18T14:23:53.616Z,98.06
2023-02-18T14:25:14.037Z,98.70
2023-02-18T14:26:15.733Z,99.42
2023-02-18T14:27:17.932Z,100.00
2023-02-18T14:28:35.204Z,100.00
2023-02-18T14:29:37.331Z,100.00
2023-02-18T14:30:43.323Z,100.00
2023-02-18T14:31:53.746Z,100.00
2023-02-18T14:33:01.698Z,100.00
2023-02-18T14:34:22.104Z,100.00